Time;durP1;ratioP1;P1;durP2;ratioP2;P2;SDS_P1;SDS_P2;PMS_P1;PMS_P2;Temp;Humidity;BMP_temperature;BMP_pressure;BME280_temperature;BME280_humidity;BME280_pressure;Samples;Min_cycle;Max_cycle;Signal;HPM_P1;HPM_P2
2022/01/29 00:01:09;;;;;;;33.88;14.73;;;;;;;;;;5068261;28;20040;-77
2022/01/29 00:03:36;;;;;;;38.90;14.00;;;;;;;;;;5051961;28;20072;-77
2022/01/29 00:06:02;;;;;;;34.85;14.25;;;;;;;;;;5067838;28;20055;-77
2022/01/29 00:08:28;;;;;;;30.85;13.82;;;;;;;;;;5068072;28;20095;-77
2022/01/29 00:11:02;;;;;;;32.03;14.43;;;;;;;;;;5068032;28;20080;-77
2022/01/29 00:13:28;;;;;;;30.55;14.25;;;;;;;;;;5067813;28;20056;-77
2022/01/29 00:15:54;;;;;;;33.65;14.02;;;;;;;;;;5067702;28;20041;-77
2022/01/29 00:18:21;;;;;;;33.15;15.32;;;;;;;;;;5051540;28;20094;-77
2022/01/29 00:20:47;;;;;;;36.33;15.38;;;;;;;;;;5050898;28;20048;-77
2022/01/29 00:23:13;;;;;;;32.85;14.23;;;;;;;;;;5067522;28;20053;-76
2022/01/29 00:25:39;;;;;;;32.13;15.30;;;;;;;;;;5068160;28;20523;-77
2022/01/29 00:28:05;;;;;;;34.58;14.98;;;;;;;;;;5051088;28;20380;-77
2022/01/29 00:30:38;;;;;;;33.92;15.20;;;;;;;;;;5068451;28;20472;-77
2022/01/29 00:33:04;;;;;;;39.33;16.02;;;;;;;;;;5067518;28;20049;-77
2022/01/29 00:35:30;;;;;;;33.70;14.50;;;;;;;;;;5051451;28;20063;-77
2022/01/29 00:37:56;;;;;;;38.20;15.50;;;;;;;;;;5051112;28;20080;-77
2022/01/29 00:40:22;;;;;;;34.80;15.70;;;;;;;;;;5067569;28;20044;-77
2022/01/29 00:42:49;;;;;;;36.50;15.02;;;;;;;;;;5050024;28;20041;-76
2022/01/29 00:45:15;;;;;;;38.80;16.08;;;;;;;;;;5050820;28;20044;-77
2022/01/29 00:47:41;;;;;;;37.05;15.70;;;;;;;;;;5051061;28;20036;-77
2022/01/29 00:50:08;;;;;;;36.97;15.95;;;;;;;;;;5050623;28;20040;-77
2022/01/29 00:52:35;;;;;;;42.47;16.70;;;;;;;;;;5067960;28;20477;-77
2022/01/29 00:55:01;;;;;;;42.25;16.65;;;;;;;;;;5067325;28;20097;-77
2022/01/29 00:57:28;;;;;;;41.15;17.75;;;;;;;;;;5068671;28;20048;-77
2022/01/29 00:59:55;;;;;;;41.15;17.40;;;;;;;;;;5067365;28;20041;-77
2022/01/29 01:02:21;;;;;;;45.13;18.05;;;;;;;;;;5050897;28;20082;-77
2022/01/29 01:04:47;;;;;;;45.83;18.05;;;;;;;;;;5066945;28;20047;-77
2022/01/29 01:07:14;;;;;;;40.42;16.00;;;;;;;;;;5051356;28;20042;-77
2022/01/29 01:09:40;;;;;;;38.25;17.02;;;;;;;;;;5067610;28;20484;-77
2022/01/29 01:12:07;;;;;;;45.75;17.38;;;;;;;;;;5067131;28;20050;-77
2022/01/29 01:14:33;;;;;;;41.45;17.67;;;;;;;;;;5068839;28;20079;-77
2022/01/29 01:16:59;;;;;;;40.45;16.50;;;;;;;;;;5050716;28;20491;-77
2022/01/29 01:19:26;;;;;;;45.97;17.73;;;;;;;;;;5067245;28;20124;-77
2022/01/29 01:21:53;;;;;;;39.65;16.83;;;;;;;;;;5067010;28;20040;-77
2022/01/29 01:24:19;;;;;;;44.45;18.13;;;;;;;;;;5068325;28;20088;-77
2022/01/29 01:26:46;;;;;;;46.72;17.67;;;;;;;;;;5034239;28;20484;-77
2022/01/29 01:29:12;;;;;;;42.35;16.77;;;;;;;;;;5067324;28;20044;-78
2022/01/29 01:31:39;;;;;;;39.05;17.25;;;;;;;;;;5067492;28;20067;-77
2022/01/29 01:34:06;;;;;;;45.78;17.20;;;;;;;;;;5068195;28;20471;-77
2022/01/29 01:36:36;;;;;;;41.15;17.25;;;;;;;;;;5067727;28;20449;-77
2022/01/29 01:39:07;;;;;;;42.55;16.67;;;;;;;;;;5071362;28;20098;-77
2022/01/29 01:41:39;;;;;;;43.63;16.52;;;;;;;;;;5071036;28;20049;-77
2022/01/29 01:44:05;;;;;;;48.38;17.63;;;;;;;;;;5053750;28;20055;-77
2022/01/29 01:46:31;;;;;;;44.35;18.88;;;;;;;;;;5070926;28;20036;-77
2022/01/29 01:48:57;;;;;;;49.00;17.60;;;;;;;;;;5070228;28;20032;-77
2022/01/29 01:51:24;;;;;;;47.97;18.02;;;;;;;;;;5070797;28;20043;-77
2022/01/29 01:53:50;;;;;;;53.95;18.40;;;;;;;;;;5053312;28;20040;-77
2022/01/29 01:56:16;;;;;;;46.90;17.63;;;;;;;;;;5054315;28;20059;-77
2022/01/29 01:58:42;;;;;;;51.88;17.17;;;;;;;;;;5070215;28;20048;-77
2022/01/29 02:01:08;;;;;;;50.22;17.20;;;;;;;;;;5071261;28;20446;-77
2022/01/29 02:03:34;;;;;;;48.80;18.00;;;;;;;;;;5053876;28;20067;-77
2022/01/29 02:06:02;;;;;;;50.03;17.30;;;;;;;;;;5070311;28;20040;-77
2022/01/29 02:08:28;;;;;;;44.08;16.75;;;;;;;;;;5070506;28;20495;-77
2022/01/29 02:11:01;;;;;;;45.80;16.48;;;;;;;;;;5069833;28;20063;-77
2022/01/29 02:13:28;;;;;;;48.95;18.23;;;;;;;;;;5071312;28;20055;-77
2022/01/29 02:15:55;;;;;;;47.83;17.35;;;;;;;;;;5070026;28;20045;-78
2022/01/29 02:18:21;;;;;;;41.80;16.27;;;;;;;;;;5071468;28;20093;-77
2022/01/29 02:20:48;;;;;;;40.63;16.73;;;;;;;;;;5069891;28;20131;-77
2022/01/29 02:23:17;;;;;;;47.75;16.23;;;;;;;;;;5069528;28;20766;-77
2022/01/29 02:25:44;;;;;;;42.65;16.40;;;;;;;;;;5070071;28;20040;-77
2022/01/29 02:28:15;;;;;;;46.00;16.33;;;;;;;;;;5069512;28;20037;-77
2022/01/29 02:30:44;;;;;;;39.83;16.48;;;;;;;;;;5069769;28;20040;-77
2022/01/29 02:33:12;;;;;;;40.15;15.82;;;;;;;;;;5069461;28;20047;-77
2022/01/29 02:35:57;;;;;;;42.33;16.02;;;;;;;;;;5069351;28;20053;-77
2022/01/29 02:38:24;;;;;;;45.33;17.65;;;;;;;;;;5070103;28;20431;-77
2022/01/29 02:40:55;;;;;;;46.42;16.58;;;;;;;;;;5069229;28;20399;-77
2022/01/29 02:43:31;;;;;;;44.63;16.50;;;;;;;;;;5086807;28;20041;-77
2022/01/29 02:46:05;;;;;;;36.50;14.95;;;;;;;;;;5069405;28;20500;-77
2022/01/29 02:48:32;;;;;;;47.05;17.20;;;;;;;;;;5056302;28;20048;-77
2022/01/29 02:50:58;;;;;;;42.00;17.58;;;;;;;;;;5053328;28;20517;-77
2022/01/29 02:53:24;;;;;;;39.90;16.73;;;;;;;;;;5069489;28;20048;-77
2022/01/29 02:55:50;;;;;;;46.75;18.05;;;;;;;;;;5068841;28;20040;-77
2022/01/29 02:58:16;;;;;;;42.00;17.60;;;;;;;;;;5053373;28;20412;-77
2022/01/29 03:00:42;;;;;;;44.58;17.25;;;;;;;;;;5070756;28;20173;-77
2022/01/29 03:03:08;;;;;;;40.75;17.95;;;;;;;;;;5048272;28;20048;-77
2022/01/29 03:05:35;;;;;;;55.55;18.73;;;;;;;;;;5051871;28;20043;-77
2022/01/29 03:08:01;;;;;;;44.80;17.90;;;;;;;;;;5035642;28;20043;-77
2022/01/29 03:10:28;;;;;;;43.60;17.55;;;;;;;;;;5069431;28;20135;-77
2022/01/29 03:12:54;;;;;;;42.75;17.65;;;;;;;;;;5069292;28;20366;-77
2022/01/29 03:15:20;;;;;;;43.85;17.00;;;;;;;;;;5070449;28;20127;-77
2022/01/29 03:17:48;;;;;;;39.38;17.35;;;;;;;;;;5069353;28;20041;-77
2022/01/29 03:20:14;;;;;;;44.05;17.52;;;;;;;;;;5069001;28;20067;-77
2022/01/29 03:22:40;;;;;;;38.75;17.58;;;;;;;;;;5068601;28;20113;-77
2022/01/29 03:25:07;;;;;;;40.17;18.33;;;;;;;;;;5051795;28;20467;-77
2022/01/29 03:27:33;;;;;;;46.67;18.13;;;;;;;;;;5068872;28;20048;-77
2022/01/29 03:29:59;;;;;;;41.35;17.83;;;;;;;;;;5068018;28;20036;-77
2022/01/29 03:32:25;;;;;;;43.60;18.58;;;;;;;;;;5068622;28;20098;-77
2022/01/29 03:34:51;;;;;;;39.45;17.27;;;;;;;;;;5068229;28;20127;-77
2022/01/29 03:37:17;;;;;;;43.45;17.17;;;;;;;;;;5068551;28;20080;-77
2022/01/29 03:39:45;;;;;;;43.83;17.30;;;;;;;;;;5068549;28;20388;-77
2022/01/29 03:42:13;;;;;;;44.63;18.20;;;;;;;;;;5051860;28;20553;-77
2022/01/29 03:44:39;;;;;;;44.03;17.55;;;;;;;;;;5069380;28;20048;-77
2022/01/29 03:47:05;;;;;;;44.15;17.85;;;;;;;;;;5068318;28;20044;-77
2022/01/29 03:49:31;;;;;;;49.78;18.42;;;;;;;;;;5068558;28;20051;-77
2022/01/29 03:51:57;;;;;;;47.58;19.08;;;;;;;;;;5068073;28;20044;-77
2022/01/29 03:54:24;;;;;;;43.80;17.42;;;;;;;;;;5068640;28;20048;-77
2022/01/29 03:56:50;;;;;;;36.63;17.80;;;;;;;;;;5068209;28;20048;-77
2022/01/29 03:59:16;;;;;;;42.30;17.60;;;;;;;;;;5068125;28;20052;-77
2022/01/29 04:01:42;;;;;;;45.00;18.38;;;;;;;;;;5051113;28;20052;-77
2022/01/29 04:04:08;;;;;;;44.60;18.65;;;;;;;;;;5067723;28;20174;-77
2022/01/29 04:06:35;;;;;;;36.50;17.35;;;;;;;;;;5068363;28;20400;-77
2022/01/29 04:09:05;;;;;;;35.35;16.42;;;;;;;;;;5034725;28;20071;-77
2022/01/29 04:11:34;;;;;;;40.88;17.40;;;;;;;;;;5035681;28;20531;-78
2022/01/29 04:14:00;;;;;;;42.20;16.40;;;;;;;;;;5068041;28;20052;-78
2022/01/29 04:16:26;;;;;;;35.78;16.15;;;;;;;;;;5051185;28;20048;-77
2022/01/29 04:18:52;;;;;;;36.00;16.50;;;;;;;;;;5069272;28;20432;-77
2022/01/29 04:21:18;;;;;;;39.80;17.38;;;;;;;;;;5069282;28;20553;-77
2022/01/29 04:23:45;;;;;;;36.60;16.60;;;;;;;;;;5069233;28;20404;-77
2022/01/29 04:26:11;;;;;;;30.35;16.08;;;;;;;;;;5067505;28;20052;-77
2022/01/29 04:28:41;;;;;;;39.33;16.17;;;;;;;;;;5051332;28;20047;-77
2022/01/29 04:31:18;;;;;;;38.88;16.45;;;;;;;;;;5067620;28;20044;-77
2022/01/29 04:33:45;;;;;;;39.83;16.45;;;;;;;;;;5067903;28;20045;-77
2022/01/29 04:36:11;;;;;;;43.75;16.02;;;;;;;;;;5068859;28;20044;-77
2022/01/29 04:38:37;;;;;;;36.65;16.42;;;;;;;;;;5068100;28;20079;-77
2022/01/29 04:41:04;;;;;;;38.88;16.50;;;;;;;;;;5067153;28;20040;-77
2022/01/29 04:43:37;;;;;;;37.00;17.33;;;;;;;;;;5067598;28;20045;-77
2022/01/29 04:46:03;;;;;;;36.15;16.08;;;;;;;;;;5067566;28;20562;-77
2022/01/29 04:48:29;;;;;;;42.95;16.52;;;;;;;;;;5067956;28;20502;-78
2022/01/29 04:50:55;;;;;;;32.88;15.95;;;;;;;;;;5068589;28;20033;-77
2022/01/29 04:53:21;;;;;;;38.58;15.90;;;;;;;;;;5067706;28;20080;-77
2022/01/29 04:55:47;;;;;;;36.33;16.05;;;;;;;;;;5067686;28;20056;-77
2022/01/29 04:58:14;;;;;;;36.90;16.45;;;;;;;;;;5068596;28;20038;-77
2022/01/29 05:00:40;;;;;;;36.63;16.33;;;;;;;;;;5068044;28;20484;-77
2022/01/29 05:03:10;;;;;;;36.60;16.45;;;;;;;;;;5059010;28;20041;-77
2022/01/29 05:05:37;;;;;;;36.50;15.25;;;;;;;;;;5066095;28;20044;-77
2022/01/29 05:08:03;;;;;;;35.35;15.02;;;;;;;;;;5065951;28;20047;-77
2022/01/29 05:10:30;;;;;;;36.78;15.85;;;;;;;;;;5067300;28;20125;-77
2022/01/29 05:13:03;;;;;;;35.05;16.00;;;;;;;;;;5069236;28;20488;-77
2022/01/29 05:15:40;;;;;;;35.55;15.57;;;;;;;;;;5071449;28;20052;-77
2022/01/29 05:29:06;;;;;;;32.65;14.88;;;;;;;;;;5056507;28;20131;-77
2022/01/29 05:31:32;;;;;;;33.85;14.73;;;;;;;;;;5054378;28;20068;-77
2022/01/29 05:33:58;;;;;;;34.28;14.10;;;;;;;;;;5070456;28;20080;-77
2022/01/29 05:36:24;;;;;;;37.38;15.02;;;;;;;;;;5072720;28;20032;-77
2022/01/29 05:38:50;;;;;;;35.58;14.63;;;;;;;;;;5071318;28;20059;-77
2022/01/29 05:41:16;;;;;;;31.27;13.68;;;;;;;;;;5037963;28;20450;-77
2022/01/29 05:43:43;;;;;;;32.63;14.23;;;;;;;;;;5070707;28;20082;-77
2022/01/29 05:46:12;;;;;;;35.65;14.40;;;;;;;;;;5070255;28;20044;-77
2022/01/29 05:48:39;;;;;;;30.80;13.85;;;;;;;;;;5070574;28;20072;-77
2022/01/29 05:51:05;;;;;;;31.77;13.13;;;;;;;;;;5070221;28;20036;-77
2022/01/29 05:53:31;;;;;;;32.08;13.10;;;;;;;;;;5054357;28;20428;-77
2022/01/29 05:55:57;;;;;;;29.08;12.77;;;;;;;;;;5053831;28;20123;-77
2022/01/29 05:58:23;;;;;;;28.02;12.05;;;;;;;;;;5053904;28;20051;-77
2022/01/29 06:00:49;;;;;;;27.92;12.35;;;;;;;;;;5070284;28;20048;-77
2022/01/29 06:03:15;;;;;;;26.60;12.27;;;;;;;;;;5069825;28;20055;-77
2022/01/29 06:05:41;;;;;;;27.92;12.32;;;;;;;;;;5070623;28;20048;-77
2022/01/29 06:08:07;;;;;;;30.40;12.63;;;;;;;;;;5053445;28;20047;-77
2022/01/29 06:10:33;;;;;;;25.10;11.77;;;;;;;;;;5070234;28;20059;-77
2022/01/29 06:13:03;;;;;;;24.27;11.30;;;;;;;;;;5053032;28;20094;-77
2022/01/29 06:15:30;;;;;;;21.70;11.00;;;;;;;;;;5070745;28;20119;-77
2022/01/29 06:17:56;;;;;;;24.77;11.18;;;;;;;;;;5069875;28;20067;-77
2022/01/29 06:20:22;;;;;;;26.20;11.63;;;;;;;;;;5070702;28;20052;-77
2022/01/29 06:22:48;;;;;;;24.38;10.88;;;;;;;;;;5071191;28;20059;-77
2022/01/29 06:25:14;;;;;;;28.17;11.25;;;;;;;;;;5069770;28;20070;-77
2022/01/29 06:27:40;;;;;;;28.08;11.75;;;;;;;;;;5069733;28;20094;-77
2022/01/29 06:30:07;;;;;;;28.15;10.85;;;;;;;;;;5053135;28;20121;-77
2022/01/29 06:32:33;;;;;;;28.48;10.73;;;;;;;;;;5070011;28;20036;-77
2022/01/29 06:34:59;;;;;;;25.00;10.20;;;;;;;;;;5069562;28;20086;-77
2022/01/29 06:37:25;;;;;;;27.75;10.50;;;;;;;;;;5070043;28;20044;-76
2022/01/29 06:39:51;;;;;;;25.60;10.15;;;;;;;;;;5069926;28;20123;-77
2022/01/29 06:42:17;;;;;;;22.88;10.25;;;;;;;;;;5070535;28;20044;-77
2022/01/29 06:44:43;;;;;;;28.02;10.48;;;;;;;;;;5053194;28;20124;-77
2022/01/29 06:47:09;;;;;;;22.55;9.98;;;;;;;;;;5069678;28;20484;-77
2022/01/29 06:49:35;;;;;;;24.42;10.73;;;;;;;;;;5069538;28;20036;-77
2022/01/29 06:52:01;;;;;;;23.83;10.52;;;;;;;;;;5069349;28;20079;-77
2022/01/29 06:54:27;;;;;;;24.10;10.07;;;;;;;;;;5069554;28;20484;-77
2022/01/29 06:56:54;;;;;;;21.67;10.50;;;;;;;;;;5069077;28;20985;-77
2022/01/29 06:59:20;;;;;;;23.02;10.88;;;;;;;;;;5069623;28;20048;-77
2022/01/29 07:01:46;;;;;;;23.80;10.00;;;;;;;;;;5052914;28;20037;-77
2022/01/29 07:04:12;;;;;;;22.60;9.68;;;;;;;;;;5052239;28;20625;-77
2022/01/29 07:06:38;;;;;;;24.58;10.40;;;;;;;;;;5069727;28;20421;-77
2022/01/29 07:09:04;;;;;;;24.70;10.00;;;;;;;;;;5069131;28;20047;-77
2022/01/29 07:11:30;;;;;;;24.95;10.00;;;;;;;;;;5069176;28;20044;-77
2022/01/29 07:14:03;;;;;;;21.25;9.65;;;;;;;;;;5068993;28;20131;-77
2022/01/29 07:16:30;;;;;;;24.23;10.02;;;;;;;;;;5052774;28;20585;-77
2022/01/29 07:18:56;;;;;;;26.27;9.55;;;;;;;;;;5052449;28;20443;-77
2022/01/29 07:21:22;;;;;;;26.45;10.10;;;;;;;;;;5068983;28;20055;-77
2022/01/29 07:23:48;;;;;;;25.90;9.50;;;;;;;;;;5068919;28;20542;-77
2022/01/29 07:26:15;;;;;;;19.77;9.75;;;;;;;;;;5052070;28;20132;-77
2022/01/29 07:28:41;;;;;;;26.15;10.68;;;;;;;;;;5069314;28;20508;-77
2022/01/29 07:31:07;;;;;;;20.77;8.90;;;;;;;;;;5068639;28;20052;-76
2022/01/29 07:33:33;;;;;;;26.75;9.45;;;;;;;;;;5052208;28;20040;-77
2022/01/29 07:36:00;;;;;;;23.98;9.27;;;;;;;;;;5068109;28;20124;-77
2022/01/29 07:38:26;;;;;;;26.40;9.80;;;;;;;;;;5068896;28;20040;-77
2022/01/29 07:40:52;;;;;;;28.45;10.52;;;;;;;;;;5035540;28;20143;-77
2022/01/29 07:43:19;;;;;;;27.48;9.90;;;;;;;;;;5068592;28;20488;-77
2022/01/29 07:45:45;;;;;;;20.63;8.75;;;;;;;;;;5069563;28;20044;-77
2022/01/29 07:48:12;;;;;;;21.75;8.73;;;;;;;;;;5068115;28;20039;-77
2022/01/29 07:50:38;;;;;;;21.17;8.40;;;;;;;;;;5051437;28;20136;-77
2022/01/29 07:53:05;;;;;;;18.38;7.95;;;;;;;;;;5069381;28;20101;-77
2022/01/29 07:55:31;;;;;;;18.77;8.32;;;;;;;;;;5051360;28;20052;-77
2022/01/29 07:58:01;;;;;;;20.88;8.15;;;;;;;;;;5068031;28;20093;-77
2022/01/29 08:00:30;;;;;;;25.65;8.18;;;;;;;;;;5052028;28;20396;-77
2022/01/29 08:02:57;;;;;;;16.58;7.55;;;;;;;;;;5101035;28;20849;-77
2022/01/29 08:05:23;;;;;;;18.23;7.68;;;;;;;;;;5067794;28;20097;-77
2022/01/29 08:07:49;;;;;;;18.25;8.02;;;;;;;;;;5068007;28;20404;-77
2022/01/29 08:10:15;;;;;;;17.73;7.75;;;;;;;;;;5067759;28;20044;-77
2022/01/29 08:12:41;;;;;;;16.52;7.65;;;;;;;;;;5068387;28;20103;-77
2022/01/29 08:15:07;;;;;;;18.77;7.60;;;;;;;;;;5067687;28;20070;-77
2022/01/29 08:17:33;;;;;;;24.08;7.55;;;;;;;;;;5068091;28;20055;-77
2022/01/29 08:20:00;;;;;;;23.45;8.50;;;;;;;;;;5067116;28;20076;-77
2022/01/29 08:22:26;;;;;;;25.00;10.25;;;;;;;;;;5034074;28;20119;-77
2022/01/29 08:24:52;;;;;;;23.67;11.27;;;;;;;;;;5067362;28;20059;-77
2022/01/29 08:27:19;;;;;;;23.65;9.50;;;;;;;;;;5067968;28;20127;-77
2022/01/29 08:29:45;;;;;;;26.35;10.63;;;;;;;;;;5068285;28;20443;-77
2022/01/29 08:32:14;;;;;;;21.90;9.57;;;;;;;;;;5067805;28;20400;-77
2022/01/29 08:34:42;;;;;;;26.17;9.93;;;;;;;;;;5067909;28;20071;-77
2022/01/29 08:37:09;;;;;;;29.58;12.02;;;;;;;;;;5067528;28;20552;-77
2022/01/29 08:39:35;;;;;;;33.38;11.63;;;;;;;;;;5051602;28;20472;-77
2022/01/29 08:42:02;;;;;;;24.75;9.95;;;;;;;;;;5067595;28;20446;-77
2022/01/29 08:44:28;;;;;;;19.75;8.65;;;;;;;;;;5067660;28;20044;-77
2022/01/29 08:46:54;;;;;;;23.80;8.30;;;;;;;;;;5067584;28;20039;-77
2022/01/29 08:49:20;;;;;;;20.10;8.73;;;;;;;;;;5071915;28;20041;-77
2022/01/29 08:51:46;;;;;;;21.70;10.18;;;;;;;;;;5071421;28;20041;-77
2022/01/29 08:54:12;;;;;;;22.63;9.50;;;;;;;;;;5071800;28;20969;-77
2022/01/29 08:56:38;;;;;;;22.35;9.63;;;;;;;;;;5071886;28;20410;-77
2022/01/29 08:59:04;;;;;;;22.92;8.80;;;;;;;;;;5071372;28;20036;-77
2022/01/29 09:01:30;;;;;;;19.67;7.68;;;;;;;;;;5071668;28;20066;-77
2022/01/29 09:03:57;;;;;;;20.20;8.52;;;;;;;;;;5071173;28;20072;-77
2022/01/29 09:06:23;;;;;;;21.70;8.60;;;;;;;;;;5071417;28;20048;-77
2022/01/29 09:08:51;;;;;;;22.40;9.10;;;;;;;;;;5055268;28;20064;-77
2022/01/29 09:11:18;;;;;;;27.42;9.90;;;;;;;;;;5070930;28;20045;-77
2022/01/29 09:13:44;;;;;;;25.70;9.93;;;;;;;;;;5071385;28;20236;-77
2022/01/29 09:16:11;;;;;;;23.77;8.23;;;;;;;;;;5071262;28;20048;-77
2022/01/29 09:18:37;;;;;;;19.98;6.45;;;;;;;;;;5071455;28;20052;-78
2022/01/29 09:21:03;;;;;;;11.63;4.88;;;;;;;;;;5070750;28;20040;-77
2022/01/29 09:23:29;;;;;;;13.98;4.80;;;;;;;;;;5070900;28;20036;-77
2022/01/29 09:25:56;;;;;;;12.38;4.35;;;;;;;;;;5070809;28;20056;-77
2022/01/29 09:28:22;;;;;;;16.92;5.30;;;;;;;;;;5071473;28;20070;-77
2022/01/29 09:30:49;;;;;;;19.38;5.82;;;;;;;;;;5070886;28;20136;-77
2022/01/29 09:33:15;;;;;;;19.35;7.25;;;;;;;;;;5070688;28;20040;-77
2022/01/29 09:35:42;;;;;;;16.20;7.55;;;;;;;;;;5071172;28;20070;-77
2022/01/29 09:38:08;;;;;;;21.13;7.32;;;;;;;;;;5070577;28;20044;-77
2022/01/29 09:40:35;;;;;;;13.27;6.07;;;;;;;;;;5071301;28;20500;-77
2022/01/29 09:43:02;;;;;;;14.57;5.50;;;;;;;;;;5070246;28;20044;-77
2022/01/29 09:45:29;;;;;;;14.68;5.45;;;;;;;;;;5054184;28;20523;-77
2022/01/29 09:48:05;;;;;;;16.95;5.25;;;;;;;;;;5070228;28;20059;-77
2022/01/29 09:50:32;;;;;;;15.98;5.50;;;;;;;;;;5070608;28;20123;-77
2022/01/29 09:52:59;;;;;;;17.23;5.82;;;;;;;;;;5053530;28;20040;-77
2022/01/29 09:55:26;;;;;;;15.30;6.25;;;;;;;;;;5053921;28;20044;-77
2022/01/29 09:57:53;;;;;;;19.90;6.85;;;;;;;;;;5052886;28;20044;-77
2022/01/29 10:00:19;;;;;;;20.08;5.78;;;;;;;;;;5070020;28;20041;-77
2022/01/29 10:02:45;;;;;;;15.73;4.82;;;;;;;;;;5070698;28;20048;-77
2022/01/29 10:05:12;;;;;;;13.73;5.03;;;;;;;;;;5053254;28;20130;-77
2022/01/29 10:07:39;;;;;;;14.20;4.32;;;;;;;;;;5070353;28;20045;-76
2022/01/29 10:10:17;;;;;;;12.52;4.05;;;;;;;;;;5069480;28;20044;-77
2022/01/29 10:12:43;;;;;;;14.57;4.28;;;;;;;;;;5070159;28;20032;-77
2022/01/29 10:15:09;;;;;;;12.13;4.65;;;;;;;;;;5069609;28;20044;-77
2022/01/29 10:17:38;;;;;;;15.73;4.70;;;;;;;;;;5070219;28;20044;-77
2022/01/29 10:20:07;;;;;;;15.60;4.32;;;;;;;;;;5069955;28;20047;-77
2022/01/29 10:22:34;;;;;;;10.18;3.70;;;;;;;;;;5070105;28;20091;-77
2022/01/29 10:25:04;;;;;;;13.32;4.40;;;;;;;;;;5069327;28;20048;-77
2022/01/29 10:27:30;;;;;;;15.40;4.40;;;;;;;;;;5070157;28;20435;-77
2022/01/29 10:30:00;;;;;;;12.82;3.53;;;;;;;;;;5070067;28;20499;-77
2022/01/29 10:32:26;;;;;;;14.75;4.00;;;;;;;;;;5069798;28;20085;-77
2022/01/29 10:34:56;;;;;;;16.35;3.58;;;;;;;;;;5070275;28;20489;-77
2022/01/29 10:37:23;;;;;;;11.50;3.58;;;;;;;;;;5070061;28;20082;-76
2022/01/29 10:40:16;;;;;;;16.75;4.13;;;;;;;;;;5071143;28;20066;-77
2022/01/29 10:42:42;;;;;;;15.43;5.05;;;;;;;;;;5067598;28;20515;-77
2022/01/29 10:45:09;;;;;;;18.02;6.40;;;;;;;;;;5068987;28;20484;-77
2022/01/29 10:47:54;;;;;;;16.98;6.10;;;;;;;;;;5069662;28;20043;-77
2022/01/29 10:50:20;;;;;;;16.48;5.35;;;;;;;;;;5069484;28;20037;-77
2022/01/29 10:52:46;;;;;;;17.60;5.25;;;;;;;;;;5069767;28;20041;-77
2022/01/29 10:55:12;;;;;;;11.80;4.28;;;;;;;;;;5068890;28;20127;-77
2022/01/29 10:57:40;;;;;;;14.10;4.60;;;;;;;;;;5069636;28;20044;-77
2022/01/29 11:00:08;;;;;;;18.10;4.75;;;;;;;;;;5069576;28;20508;-77
2022/01/29 11:02:34;;;;;;;12.80;3.20;;;;;;;;;;5069323;28;20105;-77
2022/01/29 11:05:02;;;;;;;10.23;2.90;;;;;;;;;;5068510;28;20048;-77
2022/01/29 11:07:30;;;;;;;11.00;2.92;;;;;;;;;;5052835;28;20119;-77
2022/01/29 11:09:56;;;;;;;14.65;3.38;;;;;;;;;;5068218;28;20040;-77
2022/01/29 11:12:26;;;;;;;14.98;3.15;;;;;;;;;;5069332;28;20036;-77
2022/01/29 11:14:58;;;;;;;14.27;3.40;;;;;;;;;;5069372;28;20036;-77
2022/01/29 11:17:25;;;;;;;11.90;3.35;;;;;;;;;;5069084;28;20078;-77
2022/01/29 11:19:51;;;;;;;11.02;2.50;;;;;;;;;;5052518;28;20067;-76
2022/01/29 11:22:38;;;;;;;11.93;3.17;;;;;;;;;;5069928;28;20040;-77
2022/01/29 11:25:06;;;;;;;12.50;3.00;;;;;;;;;;5068334;28;20622;-77
2022/01/29 11:27:33;;;;;;;11.50;2.88;;;;;;;;;;5052107;28;20132;-76
2022/01/29 11:30:00;;;;;;;11.93;2.78;;;;;;;;;;5068686;28;20522;-77
2022/01/29 11:32:28;;;;;;;15.70;2.95;;;;;;;;;;5068935;28;20549;-76
2022/01/29 11:35:12;;;;;;;11.15;2.38;;;;;;;;;;5069257;28;20606;-77
2022/01/29 11:37:39;;;;;;;13.30;2.67;;;;;;;;;;5068974;28;20040;-77
2022/01/29 11:40:15;;;;;;;10.57;3.05;;;;;;;;;;5051938;28;20059;-78
2022/01/29 11:43:07;;;;;;;5.85;1.73;;;;;;;;;;5068873;28;20583;-77
2022/01/29 11:45:42;;;;;;;7.10;1.65;;;;;;;;;;5063798;28;20550;-77
2022/01/29 11:48:09;;;;;;;11.60;2.00;;;;;;;;;;5068421;28;20052;-77
2022/01/29 11:50:35;;;;;;;9.68;1.92;;;;;;;;;;5068542;28;20045;-77
2022/01/29 11:53:02;;;;;;;8.43;1.92;;;;;;;;;;5051208;28;20045;-77
2022/01/29 11:55:36;;;;;;;9.57;2.00;;;;;;;;;;5051783;28;20043;-77
2022/01/29 11:58:17;;;;;;;8.55;1.90;;;;;;;;;;5068137;28;20487;-77
2022/01/29 12:00:53;;;;;;;8.18;1.90;;;;;;;;;;5068706;28;20040;-77
2022/01/29 12:03:43;;;;;;;11.52;1.70;;;;;;;;;;5067609;28;20075;-77
2022/01/29 12:06:16;;;;;;;7.63;2.00;;;;;;;;;;5068008;28;20136;-77
2022/01/29 12:09:07;;;;;;;6.72;1.77;;;;;;;;;;5068458;28;20392;-76
2022/01/29 12:11:34;;;;;;;8.98;1.73;;;;;;;;;;5067892;28;20068;-77
2022/01/29 12:14:12;;;;;;;6.90;1.75;;;;;;;;;;5067795;28;20087;-77
2022/01/29 12:16:54;;;;;;;7.45;1.63;;;;;;;;;;5068090;28;20129;-77
2022/01/29 12:19:40;;;;;;;9.93;1.90;;;;;;;;;;5069317;28;20561;-77
2022/01/29 12:22:13;;;;;;;11.02;1.92;;;;;;;;;;5068935;28;20051;-77
2022/01/29 12:24:40;;;;;;;9.20;1.90;;;;;;;;;;5050802;28;20057;-77
2022/01/29 12:27:07;;;;;;;10.07;2.03;;;;;;;;;;5067329;28;20052;-76
2022/01/29 12:29:33;;;;;;;7.68;2.50;;;;;;;;;;5069334;28;20036;-77
2022/01/29 12:32:00;;;;;;;6.80;1.73;;;;;;;;;;5067627;28;20120;-77
2022/01/29 12:34:27;;;;;;;12.82;1.77;;;;;;;;;;5069123;28;20226;-77
2022/01/29 12:37:13;;;;;;;10.52;2.55;;;;;;;;;;5051388;28;20074;-77
2022/01/29 12:39:41;;;;;;;11.27;2.13;;;;;;;;;;5067787;28;20033;-77
2022/01/29 12:44:40;;;;;;;11.55;2.10;;;;;;;;;;5067779;28;20048;-77
2022/01/29 12:47:06;;;;;;;7.07;1.58;;;;;;;;;;5050304;28;20044;-77
2022/01/29 12:49:40;;;;;;;9.20;1.80;;;;;;;;;;5067220;28;20044;-77
2022/01/29 12:52:08;;;;;;;8.25;2.55;;;;;;;;;;5050708;28;20044;-77
2022/01/29 12:54:35;;;;;;;8.05;2.35;;;;;;;;;;5067884;28;20048;-77
2022/01/29 12:57:01;;;;;;;10.13;2.00;;;;;;;;;;5050394;28;20036;-77
2022/01/29 12:59:27;;;;;;;8.98;2.35;;;;;;;;;;5067689;28;20048;-77
2022/01/29 13:01:56;;;;;;;6.20;1.80;;;;;;;;;;5067598;28;20044;-77
2022/01/29 13:04:23;;;;;;;9.25;2.00;;;;;;;;;;5050668;28;20044;-76
2022/01/29 13:06:59;;;;;;;8.93;1.90;;;;;;;;;;5051274;28;20048;-77
2022/01/29 13:09:27;;;;;;;;;;;;;;;;;;5067992;28;20120;-77
2022/01/29 13:11:57;;;;;;;9.23;1.65;;;;;;;;;;5067770;28;19952;-77
2022/01/29 13:14:24;;;;;;;6.40;1.63;;;;;;;;;;5067321;28;20048;-77
2022/01/29 13:16:57;;;;;;;8.45;2.15;;;;;;;;;;5067520;28;20040;-77
2022/01/29 13:19:25;;;;;;;11.70;2.13;;;;;;;;;;5050807;28;20048;-77
2022/01/29 13:21:52;;;;;;;9.02;1.75;;;;;;;;;;5067688;28;20302;-77
2022/01/29 13:24:28;;;;;;;10.27;1.95;;;;;;;;;;5050168;28;20048;-77
2022/01/29 13:27:03;;;;;;;7.50;1.80;;;;;;;;;;5067402;28;20456;-77
2022/01/29 13:29:34;;;;;;;8.32;2.60;;;;;;;;;;5066792;28;20041;-77
2022/01/29 13:32:07;;;;;;;10.55;1.67;;;;;;;;;;5067353;28;20079;-77
2022/01/29 13:34:35;;;;;;;7.00;1.67;;;;;;;;;;5069917;28;20076;-77
2022/01/29 13:37:02;;;;;;;6.72;1.50;;;;;;;;;;5070863;28;20044;-77
2022/01/29 13:39:29;;;;;;;7.80;2.30;;;;;;;;;;5071371;28;20532;-77
2022/01/29 13:42:16;;;;;;;8.15;1.65;;;;;;;;;;5071394;28;20439;-76
2022/01/29 13:45:05;;;;;;;7.40;1.75;;;;;;;;;;5070663;28;20115;-77
2022/01/29 13:47:32;;;;;;;8.30;1.40;;;;;;;;;;5054103;28;20048;-77
2022/01/29 13:49:58;;;;;;;11.68;1.60;;;;;;;;;;5071108;28;20074;-77
2022/01/29 13:52:25;;;;;;;6.85;1.73;;;;;;;;;;5070629;28;20037;-77
2022/01/29 13:54:51;;;;;;;7.38;1.20;;;;;;;;;;5054205;28;20388;-78
2022/01/29 13:57:17;;;;;;;7.35;1.30;;;;;;;;;;5070297;28;20056;-77
2022/01/29 13:59:46;;;;;;;7.22;1.60;;;;;;;;;;5070898;28;20519;-77
2022/01/29 14:02:12;;;;;;;5.85;1.38;;;;;;;;;;5071230;28;20044;-77
2022/01/29 14:04:43;;;;;;;10.02;1.70;;;;;;;;;;5070447;28;20040;-77
2022/01/29 14:07:16;;;;;;;7.35;1.60;;;;;;;;;;5070020;28;20045;-77
2022/01/29 14:09:45;;;;;;;6.32;1.30;;;;;;;;;;5070438;28;20049;-77
2022/01/29 14:12:29;;;;;;;5.75;1.40;;;;;;;;;;5070335;28;20476;-77
2022/01/29 14:14:58;;;;;;;7.93;1.60;;;;;;;;;;5070428;28;20044;-77
2022/01/29 14:17:27;;;;;;;8.88;1.65;;;;;;;;;;5069787;28;20041;-77
2022/01/29 14:19:54;;;;;;;7.32;1.55;;;;;;;;;;5054245;28;20384;-78
2022/01/29 14:22:21;;;;;;;6.13;1.33;;;;;;;;;;5053140;28;20507;-77
2022/01/29 14:24:48;;;;;;;8.27;1.40;;;;;;;;;;5053523;28;20055;-77
2022/01/29 14:27:14;;;;;;;7.88;1.55;;;;;;;;;;5069491;28;20053;-77
2022/01/29 14:29:41;;;;;;;8.38;1.42;;;;;;;;;;5053803;28;20035;-77
2022/01/29 14:32:08;;;;;;;8.35;1.45;;;;;;;;;;5069677;28;20040;-77
2022/01/29 14:34:34;;;;;;;9.57;1.67;;;;;;;;;;5070499;28;20479;-77
2022/01/29 14:37:00;;;;;;;7.57;1.42;;;;;;;;;;5069923;28;20308;-77
2022/01/29 14:39:27;;;;;;;8.77;1.70;;;;;;;;;;5053107;28;20075;-77
2022/01/29 14:41:54;;;;;;;9.18;1.67;;;;;;;;;;5053145;28;20051;-77
2022/01/29 14:44:21;;;;;;;8.45;1.65;;;;;;;;;;5069704;28;20268;-77